createdAt,value
2022-12-05T00:00:54.668Z,42.33
2022-12-05T00:03:22.262Z,46.60
2022-12-05T00:05:49.980Z,40.88
2022-12-05T00:08:17.448Z,48.08
2022-12-05T00:10:44.991Z,41.85
2022-12-05T00:13:12.395Z,49.78
2022-12-05T00:15:40.641Z,48.97
2022-12-05T00:18:08.052Z,49.78
2022-12-05T00:20:35.549Z,46.25
2022-12-05T00:23:02.861Z,42.53
2022-12-05T00:25:30.945Z,49.85
2022-12-05T00:27:58.108Z,46.28
2022-12-05T00:30:25.399Z,50.97
2022-12-05T00:32:52.753Z,50.05
2022-12-05T00:35:20.155Z,48.85
2022-12-05T00:37:47.453Z,49.63
2022-12-05T00:40:14.798Z,45.40
2022-12-05T00:42:42.220Z,46.47
2022-12-05T00:45:09.842Z,45.05
2022-12-05T00:47:37.559Z,43.88
2022-12-05T00:50:05.953Z,45.97
2022-12-05T00:52:33.364Z,42.55
2022-12-05T00:55:00.591Z,44.28
2022-12-05T00:57:27.848Z,44.03
2022-12-05T00:59:55.678Z,39.17
2022-12-05T01:02:23.225Z,45.92
2022-12-05T01:04:50.462Z,43.95
2022-12-05T01:07:17.664Z,41.28
2022-12-05T01:09:44.907Z,41.50
2022-12-05T01:12:12.174Z,50.38
2022-12-05T01:14:39.571Z,46.30
2022-12-05T01:17:07.071Z,46.33
2022-12-05T01:19:34.441Z,46.33
2022-12-05T01:22:01.816Z,42.58
2022-12-05T01:24:29.590Z,46.58
2022-12-05T01:26:57.360Z,44.17
2022-12-05T01:29:25.167Z,40.08
2022-12-05T01:31:52.643Z,47.42
2022-12-05T01:34:20.501Z,49.42
2022-12-05T01:36:47.972Z,49.97
2022-12-05T01:39:15.481Z,45.55
2022-12-05T01:41:44.622Z,55.33
2022-12-05T01:44:11.944Z,49.30
2022-12-05T01:46:40.668Z,48.47
2022-12-05T01:49:16.255Z,51.17
2022-12-05T01:51:46.028Z,45.67
2022-12-05T01:56:41.903Z,49.63
2022-12-05T01:59:11.160Z,48.17
2022-12-05T02:01:39.395Z,34.60
2022-12-05T02:04:06.953Z,44.72
2022-12-05T02:06:34.288Z,49.20
2022-12-05T02:09:01.914Z,43.55
2022-12-05T02:11:32.378Z,50.47
2022-12-05T02:14:08.812Z,48.60
2022-12-05T02:16:54.558Z,42.50
2022-12-05T02:19:40.475Z,45.55
2022-12-05T02:22:26.292Z,42.17
2022-12-05T02:24:59.555Z,46.28
2022-12-05T02:27:29.834Z,47.30
2022-12-05T02:30:02.785Z,49.05
2022-12-05T02:32:33.215Z,50.38
2022-12-05T02:35:06.132Z,48.42
2022-12-05T02:37:40.883Z,50.28
2022-12-05T02:40:10.984Z,47.55
2022-12-05T02:42:48.730Z,47.45
2022-12-05T02:45:17.338Z,46.80
2022-12-05T02:47:49.430Z,53.20
2022-12-05T02:50:19.552Z,45.90
2022-12-05T02:52:47.849Z,45.53
2022-12-05T02:55:16.508Z,44.00
2022-12-05T02:57:50.196Z,47.28
2022-12-05T03:00:17.624Z,50.53
2022-12-05T03:02:46.366Z,47.03
2022-12-05T03:05:22.710Z,47.65
2022-12-05T03:07:52.183Z,52.25
2022-12-05T03:10:21.854Z,44.47
2022-12-05T03:15:20.543Z,44.22
2022-12-05T03:17:58.247Z,46.88
2022-12-05T03:20:48.800Z,46.97
2022-12-05T03:23:25.940Z,47.83
2022-12-05T03:26:14.431Z,42.40
2022-12-05T03:28:47.573Z,37.78
2022-12-05T03:31:17.854Z,42.10
2022-12-05T03:33:48.428Z,42.55
2022-12-05T03:36:17.039Z,45.28
2022-12-05T03:38:47.958Z,46.92
2022-12-05T03:41:39.433Z,41.65
2022-12-05T03:44:10.994Z,47.38
2022-12-05T03:46:44.000Z,42.65
2022-12-05T03:49:11.324Z,40.50
2022-12-05T03:51:42.374Z,43.42
2022-12-05T03:54:13.767Z,40.70
2022-12-05T03:56:45.850Z,44.60
2022-12-05T03:59:16.223Z,46.25
2022-12-05T04:01:44.522Z,42.60
2022-12-05T04:04:14.762Z,41.80
2022-12-05T04:06:44.236Z,48.22
2022-12-05T04:09:26.720Z,46.92
2022-12-05T04:11:55.971Z,44.85
2022-12-05T04:14:26.978Z,35.03
2022-12-05T04:17:03.267Z,40.30
2022-12-05T04:19:55.142Z,41.22
2022-12-05T04:22:23.700Z,40.20
2022-12-05T04:25:10.641Z,42.95
2022-12-05T04:27:47.939Z,43.60
2022-12-05T04:30:17.869Z,41.90
2022-12-05T04:32:47.618Z,42.95
2022-12-05T04:37:45.830Z,41.85
2022-12-05T04:40:20.773Z,43.75
2022-12-05T04:42:48.899Z,39.10
2022-12-05T04:45:17.982Z,42.78
2022-12-05T04:47:48.130Z,46.60
2022-12-05T04:50:15.826Z,39.33
2022-12-05T04:52:43.824Z,47.35
2022-12-05T04:55:11.072Z,47.53
2022-12-05T04:57:43.151Z,47.55
2022-12-05T05:00:10.823Z,49.40
2022-12-05T05:02:47.881Z,45.42
2022-12-05T05:05:16.710Z,47.35
2022-12-05T05:07:54.079Z,49.80
2022-12-05T05:10:27.686Z,47.88
2022-12-05T05:12:55.124Z,46.65
2022-12-05T05:15:22.402Z,49.95
2022-12-05T05:17:49.940Z,58.70
2022-12-05T05:20:27.397Z,62.67
2022-12-05T05:22:55.726Z,54.03
2022-12-05T05:25:23.395Z,51.58
2022-12-05T05:27:52.110Z,50.10
2022-12-05T05:30:20.272Z,52.22
2022-12-05T05:32:47.648Z,58.22
2022-12-05T05:35:15.336Z,53.00
2022-12-05T05:37:42.657Z,47.25
2022-12-05T05:40:11.341Z,55.38
2022-12-05T05:42:42.819Z,54.23
2022-12-05T05:45:10.578Z,47.38
2022-12-05T05:47:37.853Z,55.78
2022-12-05T05:50:05.586Z,49.88
2022-12-05T05:52:36.199Z,56.90
2022-12-05T05:55:04.909Z,50.03
2022-12-05T05:57:32.157Z,49.00
2022-12-05T05:59:59.609Z,48.70
2022-12-05T06:02:27.098Z,53.63
2022-12-05T06:04:54.461Z,49.85
2022-12-05T06:07:21.735Z,49.50
2022-12-05T06:09:48.957Z,48.55
2022-12-05T06:12:16.215Z,59.17
2022-12-05T06:14:43.420Z,49.80
2022-12-05T06:17:10.662Z,47.00
2022-12-05T06:19:37.876Z,43.17
2022-12-05T06:22:05.261Z,50.67
2022-12-05T06:24:32.532Z,46.53
2022-12-05T06:27:00.019Z,46.67
2022-12-05T06:29:31.126Z,44.63
2022-12-05T06:32:00.809Z,44.80
2022-12-05T06:34:28.147Z,38.60
2022-12-05T06:36:55.330Z,44.97
2022-12-05T06:39:22.636Z,41.30
2022-12-05T06:41:49.850Z,40.83
2022-12-05T06:44:17.184Z,39.00
2022-12-05T06:46:44.509Z,39.25
2022-12-05T06:49:11.824Z,40.67
2022-12-05T06:51:39.096Z,33.70
2022-12-05T06:54:06.329Z,41.00
2022-12-05T06:56:33.644Z,34.92
2022-12-05T06:59:00.933Z,37.45
2022-12-05T07:01:44.002Z,39.17
2022-12-05T07:04:13.378Z,33.67
2022-12-05T07:06:44.022Z,29.52
2022-12-05T07:09:14.753Z,26.77
2022-12-05T07:11:42.006Z,32.45
2022-12-05T07:14:31.336Z,29.33
2022-12-05T07:17:03.806Z,33.05
2022-12-05T07:19:31.232Z,29.42
2022-12-05T07:21:58.485Z,29.83
2022-12-05T07:24:25.901Z,30.95
2022-12-05T07:26:53.082Z,28.98
2022-12-05T07:29:20.343Z,29.05
2022-12-05T07:31:47.601Z,26.27
2022-12-05T07:34:14.852Z,28.45
2022-12-05T07:36:42.189Z,26.23
2022-12-05T07:39:10.269Z,22.90
2022-12-05T07:41:37.730Z,25.15
2022-12-05T07:44:08.903Z,22.75
2022-12-05T07:46:36.170Z,28.15
2022-12-05T07:49:03.394Z,26.80
2022-12-05T07:51:30.840Z,22.77
2022-12-05T07:53:59.931Z,27.02
2022-12-05T07:56:27.125Z,21.30
2022-12-05T07:58:54.815Z,23.67
2022-12-05T08:01:23.635Z,22.20
2022-12-05T08:03:51.523Z,21.77
2022-12-05T08:06:24.094Z,21.30
2022-12-05T08:08:52.152Z,22.00
2022-12-05T08:11:30.311Z,21.30
2022-12-05T08:13:58.067Z,21.48
2022-12-05T08:16:26.915Z,23.45
2022-12-05T08:18:58.458Z,19.10
2022-12-05T08:21:25.699Z,20.48
2022-12-05T08:23:53.299Z,23.77
2022-12-05T08:26:24.583Z,24.95
2022-12-05T08:28:53.916Z,20.55
2022-12-05T08:31:24.200Z,20.08
2022-12-05T08:33:57.088Z,19.42
2022-12-05T08:36:26.361Z,15.00
2022-12-05T08:38:57.134Z,14.68
2022-12-05T08:41:29.074Z,14.77
2022-12-05T08:43:57.279Z,17.70
2022-12-05T08:46:24.634Z,15.20
2022-12-05T08:48:52.192Z,18.10
2022-12-05T08:51:19.422Z,17.95
2022-12-05T08:53:46.677Z,15.52
2022-12-05T08:56:14.322Z,16.05
2022-12-05T08:58:41.923Z,16.67
2022-12-05T09:01:09.336Z,15.02
2022-12-05T09:03:36.962Z,13.93
2022-12-05T09:06:12.449Z,15.90
2022-12-05T09:08:40.331Z,17.30
2022-12-05T09:11:08.858Z,14.68
2022-12-05T09:13:36.871Z,13.02
2022-12-05T09:16:26.439Z,14.93
2022-12-05T09:18:53.726Z,14.27
2022-12-05T09:21:22.376Z,16.55
2022-12-05T09:23:50.039Z,16.13
2022-12-05T09:26:18.233Z,16.63
2022-12-05T09:28:45.622Z,15.32
2022-12-05T09:31:14.310Z,13.93
2022-12-05T09:33:41.607Z,15.33
2022-12-05T09:36:10.166Z,15.43
2022-12-05T09:38:37.536Z,14.25
2022-12-05T09:41:15.297Z,17.63
2022-12-05T09:44:05.820Z,18.83
2022-12-05T09:47:11.544Z,15.85
2022-12-05T09:49:41.280Z,13.98
2022-12-05T09:54:38.816Z,16.63
2022-12-05T09:57:06.675Z,19.63
2022-12-05T09:59:34.991Z,13.27
2022-12-05T10:02:07.824Z,13.18
2022-12-05T10:04:47.188Z,14.48
2022-12-05T10:07:19.455Z,14.20
2022-12-05T10:09:55.918Z,11.75
2022-12-05T10:12:43.465Z,14.90
2022-12-05T10:15:22.673Z,12.20
2022-12-05T10:17:53.420Z,13.45
2022-12-05T10:20:26.905Z,13.82
2022-12-05T10:22:57.688Z,15.43
2022-12-05T10:25:27.524Z,11.48
2022-12-05T10:27:59.506Z,12.00
2022-12-05T10:30:29.786Z,13.90
2022-12-05T10:32:58.113Z,13.70
2022-12-05T10:35:29.249Z,13.90
2022-12-05T10:37:58.208Z,14.73
2022-12-05T10:40:29.312Z,13.95
2022-12-05T10:42:56.621Z,12.23
2022-12-05T10:45:24.493Z,12.85
2022-12-05T10:47:55.169Z,15.77
2022-12-05T10:50:22.402Z,16.23
2022-12-05T10:52:49.631Z,16.63
2022-12-05T10:55:18.342Z,17.38
2022-12-05T10:58:05.538Z,18.92
2022-12-05T11:00:32.895Z,13.30
2022-12-05T11:03:01.648Z,13.10
2022-12-05T11:05:30.389Z,17.15
2022-12-05T11:07:59.125Z,13.30
2022-12-05T11:10:37.813Z,15.48
2022-12-05T11:13:15.419Z,14.27
2022-12-05T11:15:50.759Z,17.08
2022-12-05T11:18:29.104Z,13.70
2022-12-05T11:20:56.706Z,16.70
2022-12-05T11:23:30.859Z,13.73
2022-12-05T11:25:59.304Z,15.52
2022-12-05T11:28:32.441Z,15.35
2022-12-05T11:31:15.204Z,14.48
2022-12-05T11:33:44.686Z,16.60
2022-12-05T11:36:22.860Z,16.38
2022-12-05T11:38:50.403Z,17.15
2022-12-05T11:41:41.603Z,16.13
2022-12-05T11:44:08.819Z,18.30
2022-12-05T11:46:36.164Z,16.77
2022-12-05T11:49:03.787Z,17.42
2022-12-05T11:51:51.269Z,18.42
2022-12-05T11:57:33.432Z,20.73
2022-12-05T12:00:07.552Z,16.92
2022-12-05T12:03:00.733Z,16.85
2022-12-05T12:05:47.010Z,18.02
2022-12-05T12:08:19.730Z,16.90
2022-12-05T12:11:00.564Z,18.88
2022-12-05T12:13:46.685Z,18.23
2022-12-05T12:16:13.949Z,21.17
2022-12-05T12:19:03.348Z,19.80
2022-12-05T12:21:51.067Z,18.90
2022-12-05T12:24:18.352Z,19.85
2022-12-05T12:26:48.706Z,21.75
2022-12-05T12:29:31.393Z,17.92
2022-12-05T12:32:14.235Z,17.30
2022-12-05T12:35:01.839Z,19.02
2022-12-05T12:37:40.013Z,21.70
2022-12-05T12:40:15.184Z,20.20
2022-12-05T12:42:42.463Z,17.55
2022-12-05T12:45:19.661Z,19.45
2022-12-05T12:48:02.439Z,25.45
2022-12-05T12:50:32.568Z,20.13
2022-12-05T12:53:02.678Z,19.00
2022-12-05T12:55:36.049Z,17.95
2022-12-05T12:58:03.298Z,21.80
2022-12-05T13:00:51.085Z,17.05
2022-12-05T13:03:21.417Z,19.98
2022-12-05T13:05:51.184Z,20.70
2022-12-05T13:08:28.306Z,22.48
2022-12-05T13:10:56.468Z,18.25
2022-12-05T13:13:31.491Z,21.55
2022-12-05T13:16:00.763Z,18.95
2022-12-05T13:18:28.514Z,21.33
2022-12-05T13:20:57.704Z,18.58
2022-12-05T13:23:27.432Z,18.00
2022-12-05T13:28:28.027Z,22.25
2022-12-05T13:30:58.393Z,26.92
2022-12-05T13:33:26.772Z,19.30
2022-12-05T13:36:17.583Z,19.88
2022-12-05T13:39:03.961Z,22.13
2022-12-05T13:42:07.160Z,18.30
2022-12-05T13:44:44.832Z,17.63
2022-12-05T13:47:24.542Z,21.92
2022-12-05T13:52:27.452Z,21.80
2022-12-05T13:55:01.037Z,19.98
2022-12-05T13:57:40.607Z,18.02
2022-12-05T14:00:10.890Z,19.45
2022-12-05T14:02:45.579Z,19.13
2022-12-05T14:05:18.979Z,18.88
2022-12-05T14:07:47.499Z,19.42
2022-12-05T14:10:21.507Z,21.60
2022-12-05T14:12:50.035Z,18.27
2022-12-05T14:15:31.241Z,18.55
2022-12-05T14:18:15.897Z,20.73
2022-12-05T14:20:52.678Z,14.80
2022-12-05T14:23:44.237Z,19.80
2022-12-05T14:26:20.626Z,17.15
2022-12-05T14:29:01.328Z,13.55
2022-12-05T14:31:34.970Z,12.77
2022-12-05T14:34:07.036Z,17.55
2022-12-05T14:36:34.415Z,15.77
2022-12-05T14:39:01.713Z,19.02
2022-12-05T14:41:36.147Z,13.50
2022-12-05T14:44:08.323Z,12.77
2022-12-05T14:46:36.303Z,14.40
2022-12-05T14:49:26.968Z,14.25
2022-12-05T14:51:57.865Z,11.50
2022-12-05T14:54:25.811Z,12.38
2022-12-05T14:56:54.561Z,17.40
2022-12-05T14:59:24.357Z,14.23
2022-12-05T15:04:25.229Z,14.75
2022-12-05T15:06:52.615Z,14.70
2022-12-05T15:09:36.855Z,16.70
2022-12-05T15:12:09.722Z,14.48
2022-12-05T15:14:48.526Z,11.70
2022-12-05T15:17:17.791Z,13.43
2022-12-05T15:19:52.558Z,12.45
2022-12-05T15:22:22.217Z,11.70
2022-12-05T15:27:17.031Z,12.93
2022-12-05T15:29:45.075Z,13.02
2022-12-05T15:32:12.284Z,16.08
2022-12-05T15:34:53.761Z,12.57
2022-12-05T15:37:28.297Z,13.95
2022-12-05T15:40:01.645Z,13.18
2022-12-05T15:42:31.960Z,15.73
2022-12-05T15:45:17.526Z,14.75
2022-12-05T15:47:44.752Z,15.27
2022-12-05T15:50:22.975Z,16.52
2022-12-05T15:53:05.915Z,17.67
2022-12-05T15:55:38.167Z,13.70
2022-12-05T15:58:13.250Z,16.10
2022-12-05T16:00:42.805Z,23.35
2022-12-05T16:03:15.819Z,16.73
2022-12-05T16:05:57.280Z,16.45
2022-12-05T16:08:24.829Z,15.98
2022-12-05T16:10:52.382Z,16.25
2022-12-05T16:13:23.440Z,10.95
2022-12-05T16:15:53.301Z,13.32
2022-12-05T16:18:31.152Z,16.60
2022-12-05T16:20:58.371Z,16.92
2022-12-05T16:23:30.286Z,16.90
2022-12-05T16:26:16.551Z,13.73
2022-12-05T16:28:43.822Z,12.60
2022-12-05T16:31:17.575Z,15.00
2022-12-05T16:33:44.984Z,16.92
2022-12-05T16:36:13.187Z,12.55
2022-12-05T16:38:45.870Z,10.52
2022-12-05T16:41:15.837Z,12.18
2022-12-05T16:43:44.839Z,10.93
2022-12-05T16:46:14.931Z,12.45
2022-12-05T16:48:47.616Z,12.18
2022-12-05T16:51:15.071Z,11.90
2022-12-05T16:53:45.898Z,12.13
2022-12-05T16:56:15.395Z,11.35
2022-12-05T16:58:42.876Z,12.25
2022-12-05T17:01:28.668Z,9.60
2022-12-05T17:03:57.421Z,10.88
2022-12-05T17:06:25.448Z,13.80
2022-12-05T17:08:53.125Z,8.13
2022-12-05T17:11:20.400Z,11.35
2022-12-05T17:13:48.648Z,10.15
2022-12-05T17:16:17.365Z,9.32
2022-12-05T17:18:45.491Z,10.80
2022-12-05T17:21:23.775Z,10.43
2022-12-05T17:23:51.058Z,10.05
2022-12-05T17:26:19.948Z,10.23
2022-12-05T17:28:47.436Z,9.93
2022-12-05T17:31:17.348Z,7.68
2022-12-05T17:33:45.960Z,8.10
2022-12-05T17:36:13.647Z,10.93
2022-12-05T17:38:41.029Z,9.23
2022-12-05T17:41:08.854Z,11.77
2022-12-05T17:43:36.132Z,9.25
2022-12-05T17:46:04.015Z,8.52
2022-12-05T17:48:31.384Z,8.93
2022-12-05T17:50:58.736Z,10.73
2022-12-05T17:53:27.381Z,8.15
2022-12-05T17:55:57.402Z,9.55
2022-12-05T17:58:24.904Z,10.13
2022-12-05T18:00:52.331Z,10.68
2022-12-05T18:03:19.998Z,11.05
2022-12-05T18:05:47.407Z,9.48
2022-12-05T18:08:16.491Z,10.48
2022-12-05T18:10:45.489Z,12.38
2022-12-05T18:13:13.088Z,9.10
2022-12-05T18:15:43.020Z,8.65
2022-12-05T18:18:14.329Z,10.07
2022-12-05T18:20:41.586Z,9.98
2022-12-05T18:23:08.896Z,10.70
2022-12-05T18:25:38.385Z,8.55
2022-12-05T18:28:05.679Z,10.43
2022-12-05T18:30:33.068Z,10.32
2022-12-05T18:33:00.304Z,8.40
2022-12-05T18:35:45.544Z,11.38
2022-12-05T18:38:12.918Z,8.23
2022-12-05T18:40:40.189Z,9.65
2022-12-05T18:43:07.418Z,9.52
2022-12-05T18:45:34.751Z,11.30
2022-12-05T18:48:23.263Z,10.55
2022-12-05T18:50:49.632Z,11.65
2022-12-05T18:53:17.031Z,9.60
2022-12-05T18:58:26.082Z,9.98
2022-12-05T19:00:53.383Z,10.30
2022-12-05T19:03:20.737Z,9.18
2022-12-05T19:05:47.963Z,10.35
2022-12-05T19:08:15.209Z,9.18
2022-12-05T19:10:42.461Z,11.50
2022-12-05T19:13:10.880Z,12.85
2022-12-05T19:15:38.120Z,11.75
2022-12-05T19:18:05.365Z,10.55
2022-12-05T19:20:32.612Z,12.40
2022-12-05T19:23:01.249Z,8.85
2022-12-05T19:25:31.624Z,11.97
2022-12-05T19:27:58.943Z,9.30
2022-12-05T19:30:26.277Z,8.70
2022-12-05T19:32:53.503Z,11.18
2022-12-05T19:35:20.917Z,11.63
2022-12-05T19:37:48.114Z,11.38
2022-12-05T19:40:15.499Z,11.40
2022-12-05T19:42:42.801Z,13.07
2022-12-05T19:45:13.588Z,12.25
2022-12-05T19:47:44.986Z,11.52
2022-12-05T19:50:13.413Z,15.48
2022-12-05T19:52:40.670Z,12.05
2022-12-05T19:55:08.102Z,11.88
2022-12-05T19:57:37.018Z,12.48
2022-12-05T20:00:04.832Z,11.35
2022-12-05T20:02:40.412Z,12.65
2022-12-05T20:05:07.937Z,12.20
2022-12-05T20:07:35.209Z,14.27
2022-12-05T20:10:02.594Z,11.55
2022-12-05T20:12:29.875Z,10.95
2022-12-05T20:14:57.694Z,14.10
2022-12-05T20:17:24.992Z,11.93
2022-12-05T20:19:52.363Z,10.27
2022-12-05T20:22:19.754Z,15.25
2022-12-05T20:24:47.050Z,13.27
2022-12-05T20:27:14.362Z,13.90
2022-12-05T20:29:42.399Z,16.85
2022-12-05T20:32:10.163Z,14.85
2022-12-05T20:34:37.455Z,12.15
2022-12-05T20:37:04.768Z,14.35
2022-12-05T20:39:33.027Z,12.68
2022-12-05T20:42:00.542Z,13.10
2022-12-05T20:44:27.914Z,14.77
2022-12-05T20:46:55.266Z,17.02
2022-12-05T20:49:22.524Z,12.82
2022-12-05T20:51:49.883Z,15.43
2022-12-05T20:54:18.267Z,14.20
2022-12-05T20:56:45.645Z,12.23
2022-12-05T20:59:13.619Z,14.13
2022-12-05T21:01:41.047Z,14.38
2022-12-05T21:04:09.041Z,12.45
2022-12-05T21:06:37.605Z,15.15
2022-12-05T21:09:05.973Z,14.77
2022-12-05T21:11:33.278Z,12.93
2022-12-05T21:14:00.965Z,15.48
2022-12-05T21:16:28.982Z,15.40
2022-12-05T21:18:56.368Z,15.82
2022-12-05T21:21:25.351Z,18.35
2022-12-05T21:23:57.331Z,15.35
2022-12-05T21:26:25.842Z,14.82
2022-12-05T21:28:53.186Z,11.80
2022-12-05T21:31:21.732Z,16.48
2022-12-05T21:33:51.644Z,12.52
2022-12-05T21:36:19.325Z,14.93
2022-12-05T21:38:50.888Z,15.40
2022-12-05T21:41:23.022Z,17.92
2022-12-05T21:43:54.343Z,14.05
2022-12-05T21:46:23.538Z,13.15
2022-12-05T21:48:50.879Z,12.35
2022-12-05T21:51:18.280Z,14.13
2022-12-05T21:53:45.569Z,11.98
2022-12-05T21:56:15.591Z,11.88
2022-12-05T21:58:43.688Z,12.13
2022-12-05T22:01:12.352Z,11.30
2022-12-05T22:03:39.659Z,10.00
2022-12-05T22:06:08.476Z,12.85
2022-12-05T22:08:36.734Z,16.98
2022-12-05T22:11:05.439Z,17.83
2022-12-05T22:13:32.727Z,17.20
2022-12-05T22:16:00.397Z,12.85
2022-12-05T22:18:27.970Z,12.30
2022-12-05T22:20:56.745Z,15.20
2022-12-05T22:23:24.037Z,17.23
2022-12-05T22:25:57.271Z,19.33
2022-12-05T22:28:24.576Z,16.20
2022-12-05T22:30:51.945Z,15.10
2022-12-05T22:33:19.316Z,15.13
2022-12-05T22:35:51.182Z,12.60
2022-12-05T22:38:18.570Z,14.15
2022-12-05T22:40:46.098Z,12.65
2022-12-05T22:43:13.413Z,14.70
2022-12-05T22:45:40.665Z,10.65
2022-12-05T22:48:07.926Z,14.70
2022-12-05T22:50:35.207Z,14.25
2022-12-05T22:53:02.457Z,13.32
2022-12-05T22:55:29.855Z,9.35
2022-12-05T22:57:57.106Z,15.68
2022-12-05T23:00:24.471Z,11.52
2022-12-05T23:02:53.257Z,16.23
2022-12-05T23:05:22.548Z,11.27
2022-12-05T23:07:50.033Z,11.23
2022-12-05T23:10:17.474Z,16.85
2022-12-05T23:12:44.833Z,11.05
2022-12-05T23:15:13.370Z,10.57
2022-12-05T23:17:41.414Z,11.48
2022-12-05T23:20:09.255Z,14.02
2022-12-05T23:22:38.942Z,12.13
2022-12-05T23:25:06.451Z,14.95
2022-12-05T23:27:34.568Z,13.13
2022-12-05T23:30:01.929Z,11.73
2022-12-05T23:32:29.248Z,14.75
2022-12-05T23:34:56.600Z,10.50
2022-12-05T23:37:23.996Z,9.75
2022-12-05T23:39:51.402Z,16.67
2022-12-05T23:42:19.011Z,13.80
2022-12-05T23:44:46.403Z,9.65
2022-12-05T23:47:13.870Z,9.15
2022-12-05T23:49:41.450Z,10.32
2022-12-05T23:52:09.655Z,11.88
2022-12-05T23:54:37.037Z,15.73
2022-12-05T23:57:04.500Z,12.93
2022-12-05T23:59:31.886Z,12.60
